Nearby METAR* Reports

*"METAR [Météorologique Aviation Régulière] is the international standard code format for hourly surface weather observations which is analogous to the SA coding currently used in the US. The acronym roughly translates from French as Aviation Routine Weather Report." (Source: https://www.ncdc.noaa.gov/wdcmet/data-access-search-viewer-tools/metar-terminal-aerodrome-forecast-taf-faq)

 

KTEB - Teterboro, New Jersey, USA
Distance from station: ENE 2mi, 3km
Updated: 06/15/2021 4:51pm
Clear
Clear
 Wind from WNW
Wind: WNW 12 mph , 19 km/h
Temperature: 79°F , 26°C
Dew Point: 55°F , 13°C
Humidity: 45%
Barometer: 29.71 inHg , 1006.1 hPa
Clouds: Clear
Visibility: 10 miles , 16 km
2021/06/15 20:51 KTEB 152051Z 30010KT 10SM CLR 26/13 A2971 RMK AO2 WSHFT 1940 SLP062 T02560128 55000 $
KNYC - Nyc/Central Park, New York, USA
Distance from station: SE 8mi, 13km
Updated: 06/15/2021 4:51pm
Partly cloudy
Partly cloudy
 Wind from varies
Wind: varies 7 mph , 11 km/h
Temperature: 79°F , 26°C
Dew Point: 54°F , 12°C
Humidity: 42%
Barometer: 29.75 inHg , 1007.5 hPa
Clouds: Partly cloudy
Cloud details: Few Clouds 6000 ft
Partly cloudy 8000 ft
2021/06/15 20:51 KNYC 152051Z AUTO VRB06KT FEW060 SCT080 26/12 A2975 RMK AO2 SLP066 T02560122 53000 $
KCDW - Caldwell, New Jersey, USA
Distance from station: W 11mi, 17km
Updated: 06/15/2021 4:53pm
Clear
Clear
 Wind from WNW
Wind: WNW 16 mph , 26 km/h, Gust: 22 mph , 35 km/h
Temperature: 79°F , 26°C
Dew Point: 54°F , 12°C
Humidity: 42%
Barometer: 29.74 inHg , 1007.1 hPa
Clouds: Clear
Visibility: 10 miles , 16 km
2021/06/15 20:53 KCDW 152053Z 30014G19KT 10SM CLR 26/12 A2974 RMK AO2 SLP075 T02610117 55000
 
KLGA - Nyc/La Guardia, New York, USA
Distance from station: ESE 12mi, 19km
Updated: 06/15/2021 4:51pm
Partly cloudy
Partly cloudy
 Wind from NW
Wind: NW 20 mph , 31 km/h
Temperature: 79°F , 26°C
Dew Point: 54°F , 12°C
Humidity: 42%
Barometer: 29.71 inHg , 1006.1 hPa
Clouds: Partly cloudy
Visibility: 10 miles , 16 km
Cloud details: Partly cloudy 6000 ft
Partly cloudy 8000 ft
2021/06/15 20:51 KLGA 152051Z 31017KT 10SM SCT060 SCT080 26/12 A2971 RMK AO2 SLP060 T02610117 55003
KEWR - Newark, New Jersey, USA
Distance from station: SSW 13mi, 20km
Updated: 06/15/2021 4:51pm
Partly cloudy
Partly cloudy
 Wind from NW
Wind: NW 15 mph , 24 km/h
Temperature: 81°F , 27°C
Dew Point: 54°F , 12°C
Humidity: 39%
Barometer: 29.72 inHg , 1006.4 hPa
Clouds: Partly cloudy
Visibility: 10 miles , 16 km
Cloud details: Partly cloudy 6000 ft
Partly cloudy 8500 ft
2021/06/15 20:51 KEWR 152051Z 31013KT 10SM SCT060 SCT085 27/12 A2972 RMK AO2 SLP064 T02720122 55001
KMMU - Morristown Muni, New Jersey, USA
Distance from station: WSW 18mi, 29km
Updated: 06/15/2021 4:45pm
Partly cloudy
Partly cloudy
 Wind from NW
Wind: NW 14 mph , 22 km/h, Gust: 23 mph , 37 km/h
Temperature: 79°F , 26°C
Dew Point: 61°F , 16°C
Humidity: 54%
Barometer: 29.75 inHg , 1007.5 hPa
Clouds: Partly cloudy
Visibility: 10 miles , 16 km
Cloud details: Partly cloudy 9000 ft
Partly cloudy 25000 ft
2021/06/15 20:45 KMMU 152045Z 31012G20KT 10SM SCT090 SCT250 26/16 A2975
 
KLDJ - Linden, New Jersey, USA
Distance from station: SSW 19mi, 30km
Updated: 06/15/2021 5:15pm
Clear
Clear
 Wind from NW
Wind: NW 18 mph , 30 km/h, Gust: 24 mph , 39 km/h
Temperature: 79°F , 26°C
Dew Point: 52°F , 11°C
Humidity: 39%
Barometer: 29.73 inHg , 1006.8 hPa
Clouds: Clear
Visibility: 10 miles , 16 km
2021/06/15 21:15 KLDJ 152115Z AUTO 32016G21KT 10SM CLR 26/11 A2973 RMK AO2 T02600109
KJFK - Nyc/Jfk Arpt, New York, USA
Distance from station: SE 23mi, 36km
Updated: 06/15/2021 4:51pm
Partly cloudy
Partly cloudy
 Wind from W
Wind: W 16 mph , 26 km/h, Gust: 31 mph , 50 km/h
Temperature: 82°F , 28°C
Heat Index: 81°F , 27°C
Dew Point: 55°F , 13°C
Humidity: 40%
Barometer: 29.72 inHg , 1006.4 hPa
Clouds: Partly cloudy
Visibility: 10 miles , 16 km
Cloud details: Partly cloudy 6000 ft
Partly cloudy 9000 ft
Partly cloudy 25000 ft
2021/06/15 20:51 KJFK 152051Z 28014G27KT 10SM SCT060 SCT090 SCT250 28/13 A2972 RMK AO2 PK WND 31027/2042 WSHFT 2012 SLP062 T02780133 55005
KHPN - White Plains, New York, USA
Distance from station: NE 25mi, 40km
Updated: 06/15/2021 4:56pm
Partly cloudy
Partly cloudy
 Wind from WNW
Wind: WNW 13 mph , 20 km/h, Gust: 22 mph , 35 km/h
Temperature: 75°F , 24°C
Dew Point: 55°F , 13°C
Humidity: 50%
Barometer: 29.72 inHg , 1006.4 hPa
Clouds: Partly cloudy
Visibility: 10 miles , 16 km
Cloud details: Partly cloudy 4000 ft
Partly cloudy 10000 ft
2021/06/15 20:56 KHPN 152056Z 30011G19KT 10SM SCT040 SCT100 24/13 A2972 RMK AO2 SLP059 T02440133 55004
 
KSMQ - Somerville, New Jersey, USA
Distance from station: WSW 35mi, 56km
Updated: 06/15/2021 4:53pm
Partly cloudy
Partly cloudy
 Wind from NW
Wind: NW 14 mph , 22 km/h, Gust: 20 mph , 31 km/h
Temperature: 75°F , 24°C
Dew Point: 55°F , 13°C
Humidity: 50%
Barometer: 29.74 inHg , 1007.1 hPa
Clouds: Partly cloudy
Visibility: 10 miles , 16 km
Cloud details: Partly cloudy 9000 ft
2021/06/15 20:53 KSMQ 152053Z AUTO 32012G17KT 10SM SCT090 24/13 A2974 RMK AO2 SLP071 T02440128 53002
K12N - Andover, New Jersey, USA
Distance from station: WNW 36mi, 57km
Updated: 06/15/2021 4:54pm

 Wind from NNW
Wind: NNW 7 mph , 11 km/h
Temperature: 72°F , 22°C
Dew Point: 57°F , 14°C
Humidity: 61%
Barometer: 29.78 inHg , 1008.5 hPa
2021/06/15 20:54 K12N 152054Z AUTO 34006KT 22/14 A2978 RMK AO1 SLP078 T02220139 53002
KFRG - Farmingdale, New York, USA
Distance from station: ESE 36mi, 58km
Updated: 06/15/2021 4:53pm
Overcast
Overcast
 Wind from SSW
Wind: SSW 10 mph , 17 km/h
Temperature: 77°F , 25°C
Dew Point: 63°F , 17°C
Humidity: 61%
Barometer: 29.71 inHg , 1006.1 hPa
Clouds: Overcast
Visibility: 10 miles , 16 km
Cloud details: Overcast 6000 ft
2021/06/15 20:53 KFRG 152053Z 20009KT 10SM OVC060 25/17 A2971 RMK AO2 SLP058 T02500172 56008
 
KFWN - Sussex, New Jersey, USA
Distance from station: NW 37mi, 60km
Updated: 06/15/2021 4:53pm
Mostly cloudy
Mostly cloudy
 Wind from W
Wind: W 10 mph , 17 km/h
Temperature: 75°F , 24°C
Dew Point: 57°F , 14°C
Humidity: 54%
Barometer: 29.76 inHg , 1007.8 hPa
Clouds: Mostly cloudy
Visibility: 10 miles , 16 km
Cloud details: Few Clouds 4000 ft
Mostly cloudy 11000 ft
2021/06/15 20:53 KFWN 152053Z AUTO 28009KT 240V320 10SM FEW040 BKN110 24/14 A2976 RMK AO2 SLP074 T02390139 50001
KSWF - Newburgh/Stewart, New York, USA
Distance from station: 0 44mi, 72km
Updated: 06/15/2021 4:45pm
Partly cloudy
Partly cloudy
 Wind from W
Wind: W 16 mph , 26 km/h
Temperature: 73°F , 23°C
Dew Point: 61°F , 16°C
Humidity: 65%
Barometer: 29.74 inHg , 1007.1 hPa
Clouds: Partly cloudy
Visibility: 10 miles , 16 km
Cloud details: Partly cloudy 4000 ft
2021/06/15 20:45 KSWF 152045Z 27014KT 10SM SCT040 23/16 A2974
KMGJ - Montgomery, New York, USA
Distance from station: NNW 47mi, 75km
Updated: 06/15/2021 4:54pm
Mostly cloudy
Mostly cloudy
 Wind from WNW
Wind: WNW 10 mph , 17 km/h
Temperature: 75°F , 24°C
Dew Point: 57°F , 14°C
Humidity: 54%
Barometer: 29.73 inHg , 1006.8 hPa
Clouds: Mostly cloudy
Visibility: 10 miles , 16 km
Cloud details: Mostly cloudy 10000 ft
2021/06/15 20:54 KMGJ 152054Z AUTO 30009KT 10SM BKN100 24/14 A2973 RMK AO2 SLP066 T02390139 58004
 
KDXR - Danbury, Connecticut, USA
Distance from station: NE 47mi, 76km
Updated: 06/15/2021 4:53pm
Clear
Clear
 Wind from WNW
Wind: WNW 8 mph , 13 km/h, Gust: 18 mph , 30 km/h
Temperature: 77°F , 25°C
Dew Point: 55°F , 13°C
Humidity: 47%
Barometer: 29.73 inHg , 1006.8 hPa
Clouds: Clear
Visibility: 10 miles , 16 km
2021/06/15 20:53 KDXR 152053Z 30007G16KT 10SM CLR 25/13 A2973 RMK AO2 SLP064 T02500133 55004
KBLM - Belmar/Farmdale, New Jersey, USA
Distance from station: S 48mi, 77km
Updated: 06/15/2021 4:56pm
Clear
Clear
 Wind from W
Wind: W 9 mph , 15 km/h, Gust: 18 mph , 30 km/h
Temperature: 79°F , 26°C
Dew Point: 57°F , 14°C
Humidity: 48%
Barometer: 29.74 inHg , 1007.1 hPa
Clouds: Clear
Visibility: 10 miles , 16 km
2021/06/15 20:56 KBLM 152056Z AUTO 28008G16KT 10SM CLR 26/14 A2974 RMK AO2 SLP072 6//// T02610139 56004 PNO $